Time;durP1;ratioP1;P1;durP2;ratioP2;P2;SDS_P1;SDS_P2;PMS_P1;PMS_P2;Temp;Humidity;BMP_temperature;BMP_pressure;BME280_temperature;BME280_humidity;BME280_pressure;Samples;Min_cycle;Max_cycle;Signal;HPM_P1;HPM_P2
2021/04/21 07:00:39;;;;;;;6.30;5.40;;;;;;;;;;10626822;28;20067;-83
2021/04/21 07:05:42;;;;;;;6.90;6.13;;;;;;;;;;10614243;27;20035;-83
2021/04/21 07:10:45;;;;;;;6.95;6.25;;;;;;;;;;10603702;28;20055;-84
2021/04/21 07:15:46;;;;;;;8.57;7.40;;;;;;;;;;10602172;28;20027;-86
2021/04/21 07:20:48;;;;;;;11.15;9.73;;;;;;;;;;10600231;28;20027;-85
2021/04/21 07:25:49;;;;;;;8.70;7.90;;;;;;;;;;10601397;28;20031;-85
2021/04/21 07:30:51;;;;;;;8.32;7.53;;;;;;;;;;10601152;28;20385;-85
2021/04/21 07:36:06;;;;;;;14.10;11.65;;;;;;;;;;10601091;28;20058;-85
2021/04/21 07:41:07;;;;;;;8.40;7.60;;;;;;;;;;10606076;28;20042;-84
2021/04/21 07:46:13;;;;;;;8.52;7.70;;;;;;;;;;10604075;28;20087;-84
2021/04/21 07:51:20;;;;;;;8.43;7.55;;;;;;;;;;10611529;28;20031;-83
2021/04/21 07:56:39;;;;;;;10.07;9.02;;;;;;;;;;10604921;28;20027;-89
2021/04/21 08:01:40;;;;;;;9.18;8.27;;;;;;;;;;10607201;28;20031;-89
2021/04/21 08:06:42;;;;;;;10.98;9.95;;;;;;;;;;10610531;28;20035;-85
2021/04/21 08:11:46;;;;;;;13.63;12.43;;;;;;;;;;10604853;28;20143;-87
2021/04/21 08:16:58;;;;;;;12.45;8.32;;;;;;;;;;10603819;28;20031;-85
2021/04/21 08:21:59;;;;;;;10.73;8.57;;;;;;;;;;10603330;28;20024;-83
2021/04/21 08:27:00;;;;;;;14.75;13.25;;;;;;;;;;10623675;28;20054;-84
2021/04/21 08:32:01;;;;;;;13.68;12.38;;;;;;;;;;10603824;28;20055;-83
2021/04/21 08:37:04;;;;;;;10.93;9.75;;;;;;;;;;10596803;28;20023;-84
2021/04/21 08:42:06;;;;;;;8.68;7.53;;;;;;;;;;10594907;28;20028;-84
2021/04/21 08:47:15;;;;;;;8.60;7.20;;;;;;;;;;10598583;28;20477;-84
2021/04/21 08:52:16;;;;;;;8.15;7.00;;;;;;;;;;10595321;28;20059;-83
2021/04/21 08:57:17;;;;;;;10.30;8.27;;;;;;;;;;10597261;28;20032;-85
2021/04/21 09:02:18;;;;;;;7.85;6.93;;;;;;;;;;10594685;28;20073;-83
2021/04/21 09:07:19;;;;;;;10.82;9.82;;;;;;;;;;10597968;28;20062;-83
2021/04/21 09:12:20;;;;;;;8.02;5.40;;;;;;;;;;10608207;28;20032;-82
2021/04/21 09:17:21;;;;;;;7.78;6.65;;;;;;;;;;10609915;28;20030;-83
2021/04/21 09:22:24;;;;;;;6.18;5.57;;;;;;;;;;10604497;28;20481;-82
2021/04/21 09:27:35;;;;;;;6.90;5.97;;;;;;;;;;10601306;28;20109;-84
2021/04/21 09:32:47;;;;;;;7.43;5.93;;;;;;;;;;10596357;28;20024;-84
2021/04/21 09:37:48;;;;;;;5.40;4.15;;;;;;;;;;10599276;28;20405;-82
2021/04/21 09:42:55;;;;;;;6.95;4.75;;;;;;;;;;10593801;28;20027;-83
2021/04/21 09:48:09;;;;;;;7.05;6.30;;;;;;;;;;10596489;28;20024;-84
2021/04/21 09:53:21;;;;;;;5.68;5.03;;;;;;;;;;10596933;28;20070;-83
2021/04/21 09:58:48;;;;;;;7.53;4.97;;;;;;;;;;10596406;28;20015;-83
2021/04/21 10:04:06;;;;;;;7.88;7.07;;;;;;;;;;10594369;28;20054;-86
2021/04/21 10:09:21;;;;;;;8.93;8.02;;;;;;;;;;10597480;28;20047;-83
2021/04/21 10:14:23;;;;;;;9.65;7.15;;;;;;;;;;10597059;28;20095;-85
2021/04/21 10:36:15;;;;;;;7.53;6.73;;;;;;;;;;10429928;28;20116;-88
2021/04/21 10:47:05;;;;;;;6.45;5.85;;;;;;;;;;10440098;28;20037;-84
2021/04/21 10:52:27;;;;;;;4.28;3.55;;;;;;;;;;10442276;28;20064;-82
2021/04/21 11:04:05;;;;;;;8.07;6.13;;;;;;;;;;10438705;28;20021;-86
2021/04/21 11:09:33;;;;;;;8.32;7.50;;;;;;;;;;10443286;28;20514;-86
2021/04/21 11:14:51;;;;;;;7.88;7.13;;;;;;;;;;10329484;28;20117;-85
2021/04/21 11:19:55;;;;;;;6.60;5.90;;;;;;;;;;10416268;28;20029;-85
2021/04/21 11:47:45;;;;;;;6.00;5.43;;;;;;;;;;10435923;28;20014;-85
2021/04/21 11:53:03;;;;;;;6.15;5.10;;;;;;;;;;10422962;28;20124;-86
2021/04/21 12:15:36;;;;;;;6.75;6.03;;;;;;;;;;10431628;28;20033;-86
2021/04/21 12:21:45;;;;;;;10.25;9.38;;;;;;;;;;10343548;28;20078;-86
2021/04/21 12:27:18;;;;;;;7.72;5.63;;;;;;;;;;10221780;29;20052;-87
2021/04/21 12:38:48;;;;;;;;;;;;;;;;;;;;;
2021/04/21 16:18:23;;;;;;;5.65;4.78;;;;;;;;;;10495038;23;20045;-82
2021/04/21 16:23:24;;;;;;;6.43;4.93;;;;;;;;;;10416920;28;20088;-82
2021/04/21 16:28:25;;;;;;;7.28;4.15;;;;;;;;;;10415319;28;20124;-83
2021/04/21 16:33:26;;;;;;;8.07;5.30;;;;;;;;;;10421147;28;20045;-84
2021/04/21 16:38:27;;;;;;;7.60;5.68;;;;;;;;;;10422514;28;20399;-82
2021/04/21 16:43:28;;;;;;;7.35;4.45;;;;;;;;;;10422220;28;20034;-84
2021/04/21 16:48:29;;;;;;;6.13;3.67;;;;;;;;;;10424644;28;20037;-85
2021/04/21 16:53:30;;;;;;;7.90;4.05;;;;;;;;;;10428401;28;20033;-83
2021/04/21 16:58:35;;;;;;;7.32;3.60;;;;;;;;;;10426773;28;20474;-85
2021/04/21 17:03:36;;;;;;;9.65;3.13;;;;;;;;;;10426746;28;20037;-83
2021/04/21 17:08:37;;;;;;;6.90;3.80;;;;;;;;;;10425873;28;20033;-82
2021/04/21 17:13:38;;;;;;;6.57;3.17;;;;;;;;;;10426643;28;20033;-84
2021/04/21 17:18:39;;;;;;;7.38;3.58;;;;;;;;;;10429038;28;20049;-84
2021/04/21 17:23:41;;;;;;;7.45;4.28;;;;;;;;;;10431313;28;20021;-84
2021/04/21 17:28:42;;;;;;;10.02;4.45;;;;;;;;;;10426151;28;20045;-83
2021/04/21 17:33:43;;;;;;;7.65;4.05;;;;;;;;;;10420695;28;20044;-83
2021/04/21 17:38:44;;;;;;;7.78;3.33;;;;;;;;;;10439738;28;20107;-83
2021/04/21 17:43:46;;;;;;;8.38;3.45;;;;;;;;;;10421222;28;20057;-84
2021/04/21 17:48:47;;;;;;;9.88;4.18;;;;;;;;;;10436958;28;20064;-84
2021/04/21 17:53:48;;;;;;;6.13;3.05;;;;;;;;;;10421617;28;20057;-85
2021/04/21 17:58:50;;;;;;;6.05;2.65;;;;;;;;;;10448073;28;20037;-84
2021/04/21 18:03:51;;;;;;;7.85;3.40;;;;;;;;;;10437492;28;20037;-84
2021/04/21 18:08:52;;;;;;;10.30;3.92;;;;;;;;;;10437693;28;20045;-84
2021/04/21 18:13:53;;;;;;;8.00;3.20;;;;;;;;;;10427379;28;20042;-85
2021/04/21 18:18:57;;;;;;;6.30;2.85;;;;;;;;;;10426513;28;20068;-84
2021/04/21 18:23:57;;;;;;;7.50;3.25;;;;;;;;;;10445406;28;20033;-84
2021/04/21 18:28:58;;;;;;;5.68;2.40;;;;;;;;;;10424079;28;20076;-84
2021/04/21 18:33:59;;;;;;;8.50;2.70;;;;;;;;;;10426485;28;20084;-84
2021/04/21 18:39:00;;;;;;;5.07;2.55;;;;;;;;;;10425216;28;20033;-84
2021/04/21 18:44:01;;;;;;;5.53;2.60;;;;;;;;;;10424318;28;20037;-84
2021/04/21 18:49:02;;;;;;;5.65;2.60;;;;;;;;;;10424619;28;20479;-84
2021/04/21 18:54:05;;;;;;;8.13;3.00;;;;;;;;;;10442231;28;20057;-84
2021/04/21 18:59:06;;;;;;;5.25;2.30;;;;;;;;;;10424684;28;20033;-84
2021/04/21 19:04:08;;;;;;;7.55;2.55;;;;;;;;;;10449649;28;20053;-84
2021/04/21 19:09:09;;;;;;;3.80;2.20;;;;;;;;;;10433248;28;20036;-83
2021/04/21 19:14:10;;;;;;;6.03;2.38;;;;;;;;;;10432492;28;20106;-83
2021/04/21 19:19:11;;;;;;;7.55;2.50;;;;;;;;;;10433025;28;20042;-83
2021/04/21 19:24:12;;;;;;;11.32;2.78;;;;;;;;;;10450321;28;20076;-83
2021/04/21 19:29:13;;;;;;;4.57;1.98;;;;;;;;;;10434570;28;20100;-83
2021/04/21 19:34:14;;;;;;;6.32;2.45;;;;;;;;;;10432631;28;20033;-83
2021/04/21 19:39:19;;;;;;;8.27;1.90;;;;;;;;;;10433009;28;20025;-83
2021/04/21 19:44:23;;;;;;;5.90;2.00;;;;;;;;;;10416364;28;20038;-83
2021/04/21 19:49:24;;;;;;;6.10;1.92;;;;;;;;;;10429247;28;20060;-84
2021/04/21 19:54:25;;;;;;;4.13;1.70;;;;;;;;;;10430977;28;20042;-84
2021/04/21 19:59:26;;;;;;;4.95;1.90;;;;;;;;;;10429942;28;20515;-84
2021/04/21 20:04:27;;;;;;;6.10;1.75;;;;;;;;;;10430274;28;20069;-84
2021/04/21 20:09:28;;;;;;;10.93;1.80;;;;;;;;;;10433003;28;20394;-84
2021/04/21 20:14:29;;;;;;;7.18;1.63;;;;;;;;;;10432611;28;20037;-83
2021/04/21 20:19:30;;;;;;;6.43;1.67;;;;;;;;;;10431852;28;20111;-83
